sensor_id;sensor_type;location;lat;lon;timestamp;temperature;humidity
15707;DHT22;7953;54.302;10.128;2022-09-04T00:02:19;15.40;99.90
15707;DHT22;7953;54.302;10.128;2022-09-04T00:04:53;15.30;99.90
15707;DHT22;7953;54.302;10.128;2022-09-04T00:07:25;15.30;99.90
15707;DHT22;7953;54.302;10.128;2022-09-04T00:10:00;15.30;99.90
15707;DHT22;7953;54.302;10.128;2022-09-04T00:12:37;15.30;99.90
15707;DHT22;7953;54.302;10.128;2022-09-04T00:15:11;15.30;99.90
15707;DHT22;7953;54.302;10.128;2022-09-04T00:17:45;15.30;99.90
15707;DHT22;7953;54.302;10.128;2022-09-04T00:20:28;15.30;99.90
15707;DHT22;7953;54.302;10.128;2022-09-04T00:23:00;15.30;99.90
15707;DHT22;7953;54.302;10.128;2022-09-04T00:25:34;15.30;99.90
15707;DHT22;7953;54.302;10.128;2022-09-04T00:28:09;15.30;99.90
15707;DHT22;7953;54.302;10.128;2022-09-04T00:30:50;15.30;99.90
15707;DHT22;7953;54.302;10.128;2022-09-04T00:33:24;15.30;99.90
15707;DHT22;7953;54.302;10.128;2022-09-04T00:35:56;15.20;99.90
15707;DHT22;7953;54.302;10.128;2022-09-04T00:38:34;15.30;99.90
15707;DHT22;7953;54.302;10.128;2022-09-04T00:41:10;15.20;99.90
15707;DHT22;7953;54.302;10.128;2022-09-04T00:47:24;15.20;99.90
15707;DHT22;7953;54.302;10.128;2022-09-04T00:50:06;15.10;99.90
15707;DHT22;7953;54.302;10.128;2022-09-04T00:52:51;15.10;99.90
15707;DHT22;7953;54.302;10.128;2022-09-04T00:55:30;15.20;99.90
15707;DHT22;7953;54.302;10.128;2022-09-04T00:58:17;15.10;99.90
15707;DHT22;7953;54.302;10.128;2022-09-04T01:00:47;15.10;99.90
15707;DHT22;7953;54.302;10.128;2022-09-04T01:03:24;15.10;99.90
15707;DHT22;7953;54.302;10.128;2022-09-04T01:06:07;15.00;99.90
15707;DHT22;7953;54.302;10.128;2022-09-04T01:11:34;15.00;99.90
15707;DHT22;7953;54.302;10.128;2022-09-04T01:14:13;15.00;99.90
15707;DHT22;7953;54.302;10.128;2022-09-04T01:16:46;15.00;99.90
15707;DHT22;7953;54.302;10.128;2022-09-04T01:19:29;15.00;99.90
15707;DHT22;7953;54.302;10.128;2022-09-04T01:22:15;15.00;99.90
15707;DHT22;7953;54.302;10.128;2022-09-04T01:24:58;14.90;99.90
15707;DHT22;7953;54.302;10.128;2022-09-04T01:27:32;14.90;99.90
15707;DHT22;7953;54.302;10.128;2022-09-04T01:30:05;14.90;99.90
15707;DHT22;7953;54.302;10.128;2022-09-04T01:32:42;14.80;99.90
15707;DHT22;7953;54.302;10.128;2022-09-04T01:35:19;14.80;99.90
15707;DHT22;7953;54.302;10.128;2022-09-04T01:37:57;14.80;99.90
15707;DHT22;7953;54.302;10.128;2022-09-04T01:40:33;14.80;99.90
15707;DHT22;7953;54.302;10.128;2022-09-04T01:43:06;14.80;99.90
15707;DHT22;7953;54.302;10.128;2022-09-04T01:46:03;14.70;99.90
15707;DHT22;7953;54.302;10.128;2022-09-04T01:48:40;14.70;99.90
15707;DHT22;7953;54.302;10.128;2022-09-04T01:51:17;14.70;99.90
15707;DHT22;7953;54.302;10.128;2022-09-04T01:53:52;14.70;99.90
15707;DHT22;7953;54.302;10.128;2022-09-04T01:56:26;14.60;99.90
15707;DHT22;7953;54.302;10.128;2022-09-04T01:59:02;14.60;99.90
15707;DHT22;7953;54.302;10.128;2022-09-04T02:01:41;14.50;99.90
15707;DHT22;7953;54.302;10.128;2022-09-04T02:04:15;14.50;99.90
15707;DHT22;7953;54.302;10.128;2022-09-04T02:06:53;14.50;99.90
15707;DHT22;7953;54.302;10.128;2022-09-04T02:09:31;14.50;99.90
15707;DHT22;7953;54.302;10.128;2022-09-04T02:12:07;14.40;99.90
15707;DHT22;7953;54.302;10.128;2022-09-04T02:14:42;14.40;99.90
15707;DHT22;7953;54.302;10.128;2022-09-04T02:17:16;14.40;99.90
15707;DHT22;7953;54.302;10.128;2022-09-04T02:20:07;14.40;99.90
15707;DHT22;7953;54.302;10.128;2022-09-04T02:22:43;14.40;99.90
15707;DHT22;7953;54.302;10.128;2022-09-04T02:25:19;14.40;99.90
15707;DHT22;7953;54.302;10.128;2022-09-04T02:27:53;14.40;99.90
15707;DHT22;7953;54.302;10.128;2022-09-04T02:30:27;14.40;99.90
15707;DHT22;7953;54.302;10.128;2022-09-04T02:32:59;14.30;99.90
15707;DHT22;7953;54.302;10.128;2022-09-04T02:35:33;14.30;99.90
15707;DHT22;7953;54.302;10.128;2022-09-04T02:38:13;14.40;99.90
15707;DHT22;7953;54.302;10.128;2022-09-04T02:40:49;14.30;99.90
15707;DHT22;7953;54.302;10.128;2022-09-04T02:43:45;14.30;99.90
15707;DHT22;7953;54.302;10.128;2022-09-04T02:46:20;14.30;99.90
15707;DHT22;7953;54.302;10.128;2022-09-04T02:48:59;14.30;99.90
15707;DHT22;7953;54.302;10.128;2022-09-04T02:51:42;14.30;99.90
15707;DHT22;7953;54.302;10.128;2022-09-04T02:54:24;14.30;99.90
15707;DHT22;7953;54.302;10.128;2022-09-04T02:57:01;14.30;99.90
15707;DHT22;7953;54.302;10.128;2022-09-04T02:59:44;14.30;99.90
15707;DHT22;7953;54.302;10.128;2022-09-04T03:02:22;14.30;99.90
15707;DHT22;7953;54.302;10.128;2022-09-04T03:04:55;14.40;99.90
15707;DHT22;7953;54.302;10.128;2022-09-04T03:07:27;14.40;99.90
15707;DHT22;7953;54.302;10.128;2022-09-04T03:10:02;14.30;99.90
15707;DHT22;7953;54.302;10.128;2022-09-04T03:12:36;14.40;99.90
15707;DHT22;7953;54.302;10.128;2022-09-04T03:15:11;14.40;99.90
15707;DHT22;7953;54.302;10.128;2022-09-04T03:17:47;14.40;99.90
15707;DHT22;7953;54.302;10.128;2022-09-04T03:20:20;14.40;99.90
15707;DHT22;7953;54.302;10.128;2022-09-04T03:22:53;14.40;99.90
15707;DHT22;7953;54.302;10.128;2022-09-04T03:25:58;14.40;99.90
15707;DHT22;7953;54.302;10.128;2022-09-04T03:28:37;14.40;99.90
15707;DHT22;7953;54.302;10.128;2022-09-04T03:31:20;14.40;99.90
15707;DHT22;7953;54.302;10.128;2022-09-04T03:33:54;14.40;99.90
15707;DHT22;7953;54.302;10.128;2022-09-04T03:36:31;14.30;99.90
15707;DHT22;7953;54.302;10.128;2022-09-04T03:39:04;14.30;99.90
15707;DHT22;7953;54.302;10.128;2022-09-04T03:41:38;14.30;99.90
15707;DHT22;7953;54.302;10.128;2022-09-04T03:44:16;14.30;99.90
15707;DHT22;7953;54.302;10.128;2022-09-04T03:46:56;14.30;99.90
15707;DHT22;7953;54.302;10.128;2022-09-04T03:49:41;14.30;99.90
15707;DHT22;7953;54.302;10.128;2022-09-04T03:52:19;14.30;99.90
15707;DHT22;7953;54.302;10.128;2022-09-04T03:54:57;14.30;99.90
15707;DHT22;7953;54.302;10.128;2022-09-04T03:57:39;14.30;99.90
15707;DHT22;7953;54.302;10.128;2022-09-04T04:00:13;14.30;99.90
15707;DHT22;7953;54.302;10.128;2022-09-04T04:03:00;14.30;99.90
15707;DHT22;7953;54.302;10.128;2022-09-04T04:05:37;14.30;99.90
15707;DHT22;7953;54.302;10.128;2022-09-04T04:08:41;14.20;99.90
15707;DHT22;7953;54.302;10.128;2022-09-04T04:11:31;14.30;99.90
15707;DHT22;7953;54.302;10.128;2022-09-04T04:14:32;14.30;99.90
15707;DHT22;7953;54.302;10.128;2022-09-04T04:17:11;14.20;99.90
15707;DHT22;7953;54.302;10.128;2022-09-04T04:19:58;14.20;99.90
15707;DHT22;7953;54.302;10.128;2022-09-04T04:22:48;14.20;99.90
15707;DHT22;7953;54.302;10.128;2022-09-04T04:25:28;14.20;99.90
15707;DHT22;7953;54.302;10.128;2022-09-04T04:28:21;14.20;99.90
15707;DHT22;7953;54.302;10.128;2022-09-04T04:30:50;14.20;99.90
15707;DHT22;7953;54.302;10.128;2022-09-04T04:33:32;14.20;99.90
15707;DHT22;7953;54.302;10.128;2022-09-04T04:36:11;14.20;99.90
15707;DHT22;7953;54.302;10.128;2022-09-04T04:39:04;14.20;99.90
15707;DHT22;7953;54.302;10.128;2022-09-04T04:41:44;14.20;99.90
15707;DHT22;7953;54.302;10.128;2022-09-04T04:44:55;14.20;99.90
15707;DHT22;7953;54.302;10.128;2022-09-04T04:48:03;14.20;99.90
15707;DHT22;7953;54.302;10.128;2022-09-04T04:50:42;14.20;99.90
15707;DHT22;7953;54.302;10.128;2022-09-04T04:53:17;14.20;99.90
15707;DHT22;7953;54.302;10.128;2022-09-04T04:55:54;14.20;99.90
15707;DHT22;7953;54.302;10.128;2022-09-04T04:58:42;14.20;99.90
15707;DHT22;7953;54.302;10.128;2022-09-04T05:01:19;14.10;99.90
15707;DHT22;7953;54.302;10.128;2022-09-04T05:03:59;14.10;99.90
15707;DHT22;7953;54.302;10.128;2022-09-04T05:06:34;14.10;99.90
15707;DHT22;7953;54.302;10.128;2022-09-04T05:09:10;14.10;99.90
15707;DHT22;7953;54.302;10.128;2022-09-04T05:11:46;14.10;99.90
15707;DHT22;7953;54.302;10.128;2022-09-04T05:14:27;14.10;99.90
15707;DHT22;7953;54.302;10.128;2022-09-04T05:17:02;14.10;99.90
15707;DHT22;7953;54.302;10.128;2022-09-04T05:19:37;14.10;99.90
15707;DHT22;7953;54.302;10.128;2022-09-04T05:22:12;14.10;99.90
15707;DHT22;7953;54.302;10.128;2022-09-04T05:24:48;14.10;99.90
15707;DHT22;7953;54.302;10.128;2022-09-04T05:27:38;14.10;99.90
15707;DHT22;7953;54.302;10.128;2022-09-04T05:30:09;14.20;99.90
15707;DHT22;7953;54.302;10.128;2022-09-04T05:32:43;14.20;99.90
15707;DHT22;7953;54.302;10.128;2022-09-04T05:35:19;14.20;99.90
15707;DHT22;7953;54.302;10.128;2022-09-04T05:37:52;14.20;99.90
15707;DHT22;7953;54.302;10.128;2022-09-04T05:40:27;14.20;99.90
15707;DHT22;7953;54.302;10.128;2022-09-04T05:43:06;14.20;99.90
15707;DHT22;7953;54.302;10.128;2022-09-04T05:45:51;14.20;99.90
15707;DHT22;7953;54.302;10.128;2022-09-04T05:48:21;14.20;99.90
15707;DHT22;7953;54.302;10.128;2022-09-04T05:54:32;14.20;99.90
15707;DHT22;7953;54.302;10.128;2022-09-04T05:57:37;14.30;99.90
15707;DHT22;7953;54.302;10.128;2022-09-04T06:00:10;14.30;99.90
15707;DHT22;7953;54.302;10.128;2022-09-04T06:05:50;14.30;99.90
15707;DHT22;7953;54.302;10.128;2022-09-04T06:08:33;14.30;99.90
15707;DHT22;7953;54.302;10.128;2022-09-04T06:11:28;14.30;99.90
15707;DHT22;7953;54.302;10.128;2022-09-04T06:14:13;14.40;99.90
15707;DHT22;7953;54.302;10.128;2022-09-04T06:16:56;14.40;99.90
15707;DHT22;7953;54.302;10.128;2022-09-04T06:19:38;14.50;99.90
15707;DHT22;7953;54.302;10.128;2022-09-04T06:22:31;14.50;99.90
15707;DHT22;7953;54.302;10.128;2022-09-04T06:25:15;14.60;99.90
15707;DHT22;7953;54.302;10.128;2022-09-04T06:28:04;14.60;99.90
15707;DHT22;7953;54.302;10.128;2022-09-04T06:30:41;14.70;99.90
15707;DHT22;7953;54.302;10.128;2022-09-04T06:33:22;14.70;99.90
15707;DHT22;7953;54.302;10.128;2022-09-04T06:35:59;14.80;99.90
15707;DHT22;7953;54.302;10.128;2022-09-04T06:38:37;14.80;99.90
15707;DHT22;7953;54.302;10.128;2022-09-04T06:41:31;14.90;99.90
15707;DHT22;7953;54.302;10.128;2022-09-04T06:44:08;15.00;99.90
15707;DHT22;7953;54.302;10.128;2022-09-04T06:46:43;15.10;99.90
15707;DHT22;7953;54.302;10.128;2022-09-04T06:49:20;15.20;99.90
15707;DHT22;7953;54.302;10.128;2022-09-04T06:52:06;15.30;99.90
15707;DHT22;7953;54.302;10.128;2022-09-04T06:54:45;15.50;99.90
15707;DHT22;7953;54.302;10.128;2022-09-04T06:57:32;15.60;99.90
15707;DHT22;7953;54.302;10.128;2022-09-04T07:00:05;15.70;99.90
15707;DHT22;7953;54.302;10.128;2022-09-04T07:03:07;15.80;99.90
15707;DHT22;7953;54.302;10.128;2022-09-04T07:05:49;15.80;99.90
15707;DHT22;7953;54.302;10.128;2022-09-04T07:08:31;15.90;99.90
15707;DHT22;7953;54.302;10.128;2022-09-04T07:13:58;16.10;99.90
15707;DHT22;7953;54.302;10.128;2022-09-04T07:16:47;16.30;99.90
15707;DHT22;7953;54.302;10.128;2022-09-04T07:25:19;16.70;99.90
15707;DHT22;7953;54.302;10.128;2022-09-04T07:28:12;16.80;99.90
15707;DHT22;7953;54.302;10.128;2022-09-04T07:30:43;16.90;99.90
15707;DHT22;7953;54.302;10.128;2022-09-04T07:33:19;17.00;99.90
15707;DHT22;7953;54.302;10.128;2022-09-04T07:35:51;17.00;99.90
15707;DHT22;7953;54.302;10.128;2022-09-04T07:38:28;17.00;99.90
15707;DHT22;7953;54.302;10.128;2022-09-04T07:41:05;17.10;99.90
15707;DHT22;7953;54.302;10.128;2022-09-04T07:43:39;17.10;99.90
15707;DHT22;7953;54.302;10.128;2022-09-04T07:46:13;17.10;99.90
15707;DHT22;7953;54.302;10.128;2022-09-04T07:48:47;17.20;99.90
15707;DHT22;7953;54.302;10.128;2022-09-04T07:51:17;17.30;99.90
15707;DHT22;7953;54.302;10.128;2022-09-04T07:54:16;17.40;99.90
15707;DHT22;7953;54.302;10.128;2022-09-04T07:56:59;17.50;99.90
15707;DHT22;7953;54.302;10.128;2022-09-04T07:59:47;17.50;99.90
15707;DHT22;7953;54.302;10.128;2022-09-04T08:02:26;17.60;99.90
15707;DHT22;7953;54.302;10.128;2022-09-04T08:05:14;17.70;99.90
15707;DHT22;7953;54.302;10.128;2022-09-04T08:08:14;17.80;99.90
15707;DHT22;7953;54.302;10.128;2022-09-04T08:10:55;17.90;99.90
15707;DHT22;7953;54.302;10.128;2022-09-04T08:13:41;18.20;99.90
15707;DHT22;7953;54.302;10.128;2022-09-04T08:16:14;18.30;99.90
15707;DHT22;7953;54.302;10.128;2022-09-04T08:19:09;18.40;99.90
15707;DHT22;7953;54.302;10.128;2022-09-04T08:21:42;18.50;99.90
15707;DHT22;7953;54.302;10.128;2022-09-04T08:27:22;18.70;99.90
15707;DHT22;7953;54.302;10.128;2022-09-04T08:30:01;19.00;99.90
15707;DHT22;7953;54.302;10.128;2022-09-04T08:33:05;19.30;99.90
15707;DHT22;7953;54.302;10.128;2022-09-04T08:35:37;19.60;99.90
15707;DHT22;7953;54.302;10.128;2022-09-04T08:38:21;19.80;99.90
15707;DHT22;7953;54.302;10.128;2022-09-04T08:44:09;20.40;99.90
15707;DHT22;7953;54.302;10.128;2022-09-04T08:46:53;20.50;99.90
15707;DHT22;7953;54.302;10.128;2022-09-04T08:49:51;20.80;99.90
15707;DHT22;7953;54.302;10.128;2022-09-04T08:52:49;21.00;99.90
15707;DHT22;7953;54.302;10.128;2022-09-04T08:55:34;21.30;99.90
15707;DHT22;7953;54.302;10.128;2022-09-04T08:58:41;21.60;99.90
15707;DHT22;7953;54.302;10.128;2022-09-04T09:01:40;22.10;99.90
15707;DHT22;7953;54.302;10.128;2022-09-04T09:04:38;22.50;99.90
15707;DHT22;7953;54.302;10.128;2022-09-04T09:07:39;22.80;99.90
15707;DHT22;7953;54.302;10.128;2022-09-04T09:10:34;23.10;99.90
15707;DHT22;7953;54.302;10.128;2022-09-04T09:16:22;23.50;99.90
15707;DHT22;7953;54.302;10.128;2022-09-04T09:19:09;23.80;99.90
15707;DHT22;7953;54.302;10.128;2022-09-04T09:21:59;23.90;99.90
15707;DHT22;7953;54.302;10.128;2022-09-04T09:25:03;24.10;99.90
15707;DHT22;7953;54.302;10.128;2022-09-04T09:28:00;24.30;99.90
15707;DHT22;7953;54.302;10.128;2022-09-04T09:30:38;24.60;99.90
15707;DHT22;7953;54.302;10.128;2022-09-04T09:33:45;24.80;99.90
15707;DHT22;7953;54.302;10.128;2022-09-04T09:36:36;25.00;99.90
15707;DHT22;7953;54.302;10.128;2022-09-04T09:42:18;25.20;99.90
15707;DHT22;7953;54.302;10.128;2022-09-04T09:45:29;25.30;99.90
15707;DHT22;7953;54.302;10.128;2022-09-04T09:48:30;25.30;99.90
15707;DHT22;7953;54.302;10.128;2022-09-04T09:51:35;25.20;99.90
15707;DHT22;7953;54.302;10.128;2022-09-04T09:54:32;25.40;99.90
15707;DHT22;7953;54.302;10.128;2022-09-04T10:00:15;25.70;99.90
15707;DHT22;7953;54.302;10.128;2022-09-04T10:03:17;25.80;99.90
15707;DHT22;7953;54.302;10.128;2022-09-04T10:06:10;25.90;99.90
15707;DHT22;7953;54.302;10.128;2022-09-04T10:09:26;25.80;99.90
15707;DHT22;7953;54.302;10.128;2022-09-04T10:15:43;25.70;99.90
15707;DHT22;7953;54.302;10.128;2022-09-04T10:27:46;26.00;99.90
15707;DHT22;7953;54.302;10.128;2022-09-04T10:30:17;25.80;99.90
15707;DHT22;7953;54.302;10.128;2022-09-04T10:33:19;25.70;99.90
15707;DHT22;7953;54.302;10.128;2022-09-04T10:35:59;25.70;99.90
15707;DHT22;7953;54.302;10.128;2022-09-04T10:38:43;25.60;99.90
15707;DHT22;7953;54.302;10.128;2022-09-04T10:41:46;25.50;99.90
15707;DHT22;7953;54.302;10.128;2022-09-04T10:50:58;25.20;99.90
15707;DHT22;7953;54.302;10.128;2022-09-04T10:56:25;25.00;99.90
15707;DHT22;7953;54.302;10.128;2022-09-04T10:59:24;24.90;99.90
15707;DHT22;7953;54.302;10.128;2022-09-04T11:02:24;24.80;99.90
15707;DHT22;7953;54.302;10.128;2022-09-04T11:05:18;24.70;99.90
15707;DHT22;7953;54.302;10.128;2022-09-04T11:08:09;24.70;99.90
15707;DHT22;7953;54.302;10.128;2022-09-04T11:11:04;24.70;99.90
15707;DHT22;7953;54.302;10.128;2022-09-04T11:13:49;24.60;99.90
15707;DHT22;7953;54.302;10.128;2022-09-04T11:16:39;24.60;99.90
15707;DHT22;7953;54.302;10.128;2022-09-04T11:22:39;24.60;99.90
15707;DHT22;7953;54.302;10.128;2022-09-04T11:28:45;24.40;99.90
15707;DHT22;7953;54.302;10.128;2022-09-04T11:34:33;24.30;99.90
15707;DHT22;7953;54.302;10.128;2022-09-04T11:37:33;24.30;99.90
15707;DHT22;7953;54.302;10.128;2022-09-04T11:40:12;24.30;99.90
15707;DHT22;7953;54.302;10.128;2022-09-04T11:42:56;24.30;99.90
15707;DHT22;7953;54.302;10.128;2022-09-04T11:45:55;24.40;99.90
15707;DHT22;7953;54.302;10.128;2022-09-04T11:48:51;24.40;99.90
15707;DHT22;7953;54.302;10.128;2022-09-04T11:51:48;24.50;99.90
15707;DHT22;7953;54.302;10.128;2022-09-04T11:54:50;24.40;99.90
15707;DHT22;7953;54.302;10.128;2022-09-04T11:57:30;24.40;99.90
15707;DHT22;7953;54.302;10.128;2022-09-04T12:00:05;24.40;99.90
15707;DHT22;7953;54.302;10.128;2022-09-04T12:03:09;24.40;99.90
15707;DHT22;7953;54.302;10.128;2022-09-04T12:05:58;24.50;99.90
15707;DHT22;7953;54.302;10.128;2022-09-04T12:08:52;24.50;99.90
15707;DHT22;7953;54.302;10.128;2022-09-04T12:11:36;24.60;99.90
15707;DHT22;7953;54.302;10.128;2022-09-04T12:14:18;24.60;99.90
15707;DHT22;7953;54.302;10.128;2022-09-04T12:20:26;24.70;99.90
15707;DHT22;7953;54.302;10.128;2022-09-04T12:23:30;24.70;99.90
15707;DHT22;7953;54.302;10.128;2022-09-04T12:26:22;24.70;99.90
15707;DHT22;7953;54.302;10.128;2022-09-04T12:32:21;24.60;99.90
15707;DHT22;7953;54.302;10.128;2022-09-04T12:38:48;24.70;99.90
15707;DHT22;7953;54.302;10.128;2022-09-04T12:41:23;24.70;99.90
15707;DHT22;7953;54.302;10.128;2022-09-04T12:44:02;24.70;99.90
15707;DHT22;7953;54.302;10.128;2022-09-04T12:46:39;24.70;99.90
15707;DHT22;7953;54.302;10.128;2022-09-04T12:49:38;24.60;99.90
15707;DHT22;7953;54.302;10.128;2022-09-04T12:52:13;24.70;99.90
15707;DHT22;7953;54.302;10.128;2022-09-04T12:54:50;24.70;99.90
15707;DHT22;7953;54.302;10.128;2022-09-04T12:57:37;24.70;99.90
15707;DHT22;7953;54.302;10.128;2022-09-04T13:00:11;24.80;99.90
15707;DHT22;7953;54.302;10.128;2022-09-04T13:02:50;24.80;99.90
15707;DHT22;7953;54.302;10.128;2022-09-04T13:05:34;24.90;99.90
15707;DHT22;7953;54.302;10.128;2022-09-04T13:08:12;24.90;99.90
15707;DHT22;7953;54.302;10.128;2022-09-04T13:10:54;25.00;99.90
15707;DHT22;7953;54.302;10.128;2022-09-04T13:13:37;25.00;99.90
15707;DHT22;7953;54.302;10.128;2022-09-04T13:16:14;25.10;99.90
15707;DHT22;7953;54.302;10.128;2022-09-04T13:18:51;25.00;99.90
15707;DHT22;7953;54.302;10.128;2022-09-04T13:21:32;24.90;99.90
15707;DHT22;7953;54.302;10.128;2022-09-04T13:24:14;24.80;99.90
15707;DHT22;7953;54.302;10.128;2022-09-04T13:26:56;24.70;99.90
15707;DHT22;7953;54.302;10.128;2022-09-04T13:29:33;24.70;99.90
15707;DHT22;7953;54.302;10.128;2022-09-04T13:32:29;24.70;99.90
15707;DHT22;7953;54.302;10.128;2022-09-04T13:35:09;24.70;99.90
15707;DHT22;7953;54.302;10.128;2022-09-04T13:38:00;24.60;99.90
15707;DHT22;7953;54.302;10.128;2022-09-04T13:41:11;24.60;99.90
15707;DHT22;7953;54.302;10.128;2022-09-04T13:44:05;24.50;99.90
15707;DHT22;7953;54.302;10.128;2022-09-04T13:46:39;24.50;99.90
15707;DHT22;7953;54.302;10.128;2022-09-04T13:49:12;24.30;99.90
15707;DHT22;7953;54.302;10.128;2022-09-04T13:51:44;24.10;99.90
15707;DHT22;7953;54.302;10.128;2022-09-04T13:54:17;24.00;99.90
15707;DHT22;7953;54.302;10.128;2022-09-04T13:56:52;23.90;99.90
15707;DHT22;7953;54.302;10.128;2022-09-04T13:59:22;23.90;99.90
15707;DHT22;7953;54.302;10.128;2022-09-04T14:01:52;23.90;99.90
15707;DHT22;7953;54.302;10.128;2022-09-04T14:04:25;24.00;99.90
15707;DHT22;7953;54.302;10.128;2022-09-04T14:06:56;24.00;99.90
15707;DHT22;7953;54.302;10.128;2022-09-04T14:09:36;24.10;99.90
15707;DHT22;7953;54.302;10.128;2022-09-04T14:12:25;24.10;99.90
15707;DHT22;7953;54.302;10.128;2022-09-04T14:15:24;24.10;99.90
15707;DHT22;7953;54.302;10.128;2022-09-04T14:18:07;24.00;99.90
15707;DHT22;7953;54.302;10.128;2022-09-04T14:20:47;23.90;99.90
15707;DHT22;7953;54.302;10.128;2022-09-04T14:23:18;23.90;99.90
15707;DHT22;7953;54.302;10.128;2022-09-04T14:25:53;23.90;99.90
15707;DHT22;7953;54.302;10.128;2022-09-04T14:28:29;23.80;99.90
15707;DHT22;7953;54.302;10.128;2022-09-04T14:31:04;23.70;99.90
15707;DHT22;7953;54.302;10.128;2022-09-04T14:33:39;23.70;99.90
15707;DHT22;7953;54.302;10.128;2022-09-04T14:36:18;23.70;99.90
15707;DHT22;7953;54.302;10.128;2022-09-04T14:39:15;23.50;99.90
15707;DHT22;7953;54.302;10.128;2022-09-04T14:42:00;23.50;99.90
15707;DHT22;7953;54.302;10.128;2022-09-04T14:44:42;23.50;99.90
15707;DHT22;7953;54.302;10.128;2022-09-04T14:47:20;23.50;99.90
15707;DHT22;7953;54.302;10.128;2022-09-04T14:49:54;23.40;99.90
15707;DHT22;7953;54.302;10.128;2022-09-04T14:52:26;23.30;99.90
15707;DHT22;7953;54.302;10.128;2022-09-04T14:54:56;23.20;99.90
15707;DHT22;7953;54.302;10.128;2022-09-04T14:57:29;23.20;99.90
15707;DHT22;7953;54.302;10.128;2022-09-04T15:00:04;23.10;99.90
15707;DHT22;7953;54.302;10.128;2022-09-04T15:02:38;23.10;99.90
15707;DHT22;7953;54.302;10.128;2022-09-04T15:05:15;23.00;99.90
15707;DHT22;7953;54.302;10.128;2022-09-04T15:07:54;23.00;99.90
15707;DHT22;7953;54.302;10.128;2022-09-04T15:10:26;22.90;99.90
15707;DHT22;7953;54.302;10.128;2022-09-04T15:16:19;22.80;99.90
15707;DHT22;7953;54.302;10.128;2022-09-04T15:18:54;22.80;99.90
15707;DHT22;7953;54.302;10.128;2022-09-04T15:21:30;22.80;99.90
15707;DHT22;7953;54.302;10.128;2022-09-04T15:24:08;22.80;99.90
15707;DHT22;7953;54.302;10.128;2022-09-04T15:26:42;22.70;99.90
15707;DHT22;7953;54.302;10.128;2022-09-04T15:29:15;22.60;99.90
15707;DHT22;7953;54.302;10.128;2022-09-04T15:31:44;22.50;99.90
15707;DHT22;7953;54.302;10.128;2022-09-04T15:34:19;22.50;99.90
15707;DHT22;7953;54.302;10.128;2022-09-04T15:36:46;22.40;99.90
15707;DHT22;7953;54.302;10.128;2022-09-04T15:39:24;22.40;99.90
15707;DHT22;7953;54.302;10.128;2022-09-04T15:41:52;22.40;99.90
15707;DHT22;7953;54.302;10.128;2022-09-04T15:44:24;22.40;99.90
15707;DHT22;7953;54.302;10.128;2022-09-04T15:47:00;22.40;99.90
15707;DHT22;7953;54.302;10.128;2022-09-04T15:49:40;22.30;99.90
15707;DHT22;7953;54.302;10.128;2022-09-04T15:52:25;22.30;99.90
15707;DHT22;7953;54.302;10.128;2022-09-04T15:55:09;22.20;99.90
15707;DHT22;7953;54.302;10.128;2022-09-04T15:57:50;22.20;99.90
15707;DHT22;7953;54.302;10.128;2022-09-04T16:00:23;22.20;99.90
15707;DHT22;7953;54.302;10.128;2022-09-04T16:02:55;22.10;99.90
15707;DHT22;7953;54.302;10.128;2022-09-04T16:05:29;22.10;99.90
15707;DHT22;7953;54.302;10.128;2022-09-04T16:08:15;22.10;99.90
15707;DHT22;7953;54.302;10.128;2022-09-04T16:10:52;22.10;99.90
15707;DHT22;7953;54.302;10.128;2022-09-04T16:13:35;22.10;99.90
15707;DHT22;7953;54.302;10.128;2022-09-04T16:16:10;22.00;99.90
15707;DHT22;7953;54.302;10.128;2022-09-04T16:18:53;22.00;99.90
15707;DHT22;7953;54.302;10.128;2022-09-04T16:21:29;21.90;99.90
15707;DHT22;7953;54.302;10.128;2022-09-04T16:23:57;21.90;99.90
15707;DHT22;7953;54.302;10.128;2022-09-04T16:26:33;21.90;99.90
15707;DHT22;7953;54.302;10.128;2022-09-04T16:29:03;21.90;99.90
15707;DHT22;7953;54.302;10.128;2022-09-04T16:31:34;21.90;99.90
15707;DHT22;7953;54.302;10.128;2022-09-04T16:34:13;21.80;99.90
15707;DHT22;7953;54.302;10.128;2022-09-04T16:36:46;21.70;99.90
15707;DHT22;7953;54.302;10.128;2022-09-04T16:39:22;21.70;99.90
15707;DHT22;7953;54.302;10.128;2022-09-04T16:41:55;21.60;99.90
15707;DHT22;7953;54.302;10.128;2022-09-04T16:44:27;21.60;99.90
15707;DHT22;7953;54.302;10.128;2022-09-04T16:47:01;21.50;99.90
15707;DHT22;7953;54.302;10.128;2022-09-04T16:49:38;21.40;99.90
15707;DHT22;7953;54.302;10.128;2022-09-04T16:52:28;21.40;99.90
15707;DHT22;7953;54.302;10.128;2022-09-04T16:55:03;21.30;99.90
15707;DHT22;7953;54.302;10.128;2022-09-04T16:57:38;21.20;99.90
15707;DHT22;7953;54.302;10.128;2022-09-04T17:00:09;21.10;99.90
15707;DHT22;7953;54.302;10.128;2022-09-04T17:02:43;21.10;99.90
15707;DHT22;7953;54.302;10.128;2022-09-04T17:05:20;21.00;99.90
15707;DHT22;7953;54.302;10.128;2022-09-04T17:07:54;20.90;99.90
15707;DHT22;7953;54.302;10.128;2022-09-04T17:10:35;20.80;99.90
15707;DHT22;7953;54.302;10.128;2022-09-04T17:13:09;20.80;99.90
15707;DHT22;7953;54.302;10.128;2022-09-04T17:15:43;20.70;99.90
15707;DHT22;7953;54.302;10.128;2022-09-04T17:18:13;20.70;99.90
15707;DHT22;7953;54.302;10.128;2022-09-04T17:20:52;20.60;99.90
15707;DHT22;7953;54.302;10.128;2022-09-04T17:23:24;20.50;99.90
15707;DHT22;7953;54.302;10.128;2022-09-04T17:25:56;20.50;99.90
15707;DHT22;7953;54.302;10.128;2022-09-04T17:28:36;20.40;99.90
15707;DHT22;7953;54.302;10.128;2022-09-04T17:31:09;20.40;99.90
15707;DHT22;7953;54.302;10.128;2022-09-04T17:33:43;20.30;99.90
15707;DHT22;7953;54.302;10.128;2022-09-04T17:36:17;20.30;99.90
15707;DHT22;7953;54.302;10.128;2022-09-04T17:38:48;20.20;99.90
15707;DHT22;7953;54.302;10.128;2022-09-04T17:41:20;20.10;99.90
15707;DHT22;7953;54.302;10.128;2022-09-04T17:43:59;20.00;99.90
15707;DHT22;7953;54.302;10.128;2022-09-04T17:46:32;20.00;99.90
15707;DHT22;7953;54.302;10.128;2022-09-04T17:49:11;20.00;99.90
15707;DHT22;7953;54.302;10.128;2022-09-04T17:51:40;20.00;99.90
15707;DHT22;7953;54.302;10.128;2022-09-04T17:54:13;19.90;99.90
15707;DHT22;7953;54.302;10.128;2022-09-04T17:56:44;19.90;99.90
15707;DHT22;7953;54.302;10.128;2022-09-04T17:59:19;19.80;99.90
15707;DHT22;7953;54.302;10.128;2022-09-04T18:01:54;19.70;99.90
15707;DHT22;7953;54.302;10.128;2022-09-04T18:04:30;19.70;99.90
15707;DHT22;7953;54.302;10.128;2022-09-04T18:07:04;19.60;99.90
15707;DHT22;7953;54.302;10.128;2022-09-04T18:09:37;19.50;99.90
15707;DHT22;7953;54.302;10.128;2022-09-04T18:12:13;19.40;99.90
15707;DHT22;7953;54.302;10.128;2022-09-04T18:14:50;19.30;99.90
15707;DHT22;7953;54.302;10.128;2022-09-04T18:17:29;19.30;99.90
15707;DHT22;7953;54.302;10.128;2022-09-04T18:20:08;19.20;99.90